TimeCST,TemperatureF,Dew PointF,Humidity,Sea Level PressureIn,VisibilityMPH,Wind Direction,Wind SpeedMPH,Gust SpeedMPH,PrecipitationIn,Events,Conditions,WindDirDegrees,DateUTC
12:15 AM,39.2,31.1,73,30.00,10.0,SSW,12.7,-,N/A,,Scattered Clouds,210,2013-01-09 06:15:00
12:35 AM,39.7,31.3,72,30.01,10.0,SW,10.4,-,N/A,,Scattered Clouds,220,2013-01-09 06:35:00
12:55 AM,39.4,31.6,74,30.02,10.0,SW,6.9,-,N/A,,Mostly Cloudy,230,2013-01-09 06:55:00
1:15 AM,38.8,31.6,75,30.03,10.0,SW,8.1,-,N/A,,Mostly Cloudy,230,2013-01-09 07:15:00
1:35 AM,38.8,31.6,75,30.04,10.0,WSW,9.2,-,N/A,,Scattered Clouds,250,2013-01-09 07:35:00
1:55 AM,38.3,31.6,77,30.05,10.0,WSW,9.2,-,N/A,,Clear,240,2013-01-09 07:55:00
2:15 AM,37.6,31.6,79,30.06,10.0,WSW,9.2,-,N/A,,Clear,250,2013-01-09 08:15:00
2:35 AM,37.2,31.1,79,30.07,10.0,West,8.1,-,N/A,,Clear,260,2013-01-09 08:35:00
2:55 AM,36.5,30.7,80,30.07,10.0,West,6.9,-,N/A,,Clear,260,2013-01-09 08:55:00
3:15 AM,35.8,30.4,81,30.09,10.0,West,6.9,-,N/A,,Clear,260,2013-01-09 09:15:00
3:35 AM,35.6,30.2,81,30.10,10.0,West,5.8,-,N/A,,Clear,270,2013-01-09 09:35:00
3:55 AM,34.9,30.0,82,30.11,10.0,WSW,8.1,-,N/A,,Clear,250,2013-01-09 09:55:00
4:15 AM,34.7,29.8,82,30.12,10.0,WSW,6.9,-,N/A,,Clear,250,2013-01-09 10:15:00
4:35 AM,34.2,29.5,83,30.13,10.0,West,4.6,-,N/A,,Clear,260,2013-01-09 10:35:00
4:55 AM,33.8,29.3,84,30.14,10.0,West,5.8,-,N/A,,Clear,260,2013-01-09 10:55:00
5:15 AM,33.3,29.1,85,30.15,10.0,West,3.5,-,N/A,,Clear,260,2013-01-09 11:15:00
5:35 AM,33.3,29.1,85,30.16,10.0,West,5.8,-,N/A,,Clear,260,2013-01-09 11:35:00
5:55 AM,33.3,29.1,85,30.17,10.0,West,4.6,-,N/A,,Clear,280,2013-01-09 11:55:00
6:15 AM,32.9,28.8,85,30.17,10.0,West,3.5,-,N/A,,Clear,280,2013-01-09 12:15:00
6:35 AM,32.0,28.4,87,30.18,10.0,WSW,4.6,-,N/A,,Clear,240,2013-01-09 12:35:00
6:55 AM,31.8,28.4,87,30.19,10.0,Calm,Calm,-,N/A,,Clear,0,2013-01-09 12:55:00
7:15 AM,32.0,28.2,86,30.20,10.0,West,3.5,-,N/A,,Clear,260,2013-01-09 13:15:00
7:35 AM,31.5,27.5,85,30.20,10.0,Calm,Calm,-,N/A,,Clear,0,2013-01-09 13:35:00
7:55 AM,30.7,27.5,88,30.21,10.0,Calm,Calm,-,N/A,,Clear,0,2013-01-09 13:55:00
8:15 AM,31.6,28.0,87,30.22,10.0,SW,5.8,-,N/A,,Clear,220,2013-01-09 14:15:00
8:35 AM,32.5,28.4,85,30.23,10.0,SW,4.6,-,N/A,,Clear,230,2013-01-09 14:35:00
9:15 AM,34.3,29.3,82,30.26,10.0,WSW,8.1,-,N/A,,Clear,250,2013-01-09 15:15:00
9:35 AM,34.7,29.7,82,30.26,10.0,WSW,6.9,-,N/A,,Clear,240,2013-01-09 15:35:00
9:55 AM,35.2,30.2,82,30.28,10.0,SSW,11.5,-,N/A,,Clear,210,2013-01-09 15:55:00
10:15 AM,35.1,30.4,83,30.30,10.0,SW,11.5,16.1,N/A,,Clear,220,2013-01-09 16:15:00
10:35 AM,36.5,30.7,80,30.32,10.0,SW,16.1,21.9,N/A,,Clear,230,2013-01-09 16:35:00
11:15 AM,39.2,30.2,70,30.34,10.0,SW,20.7,26.5,N/A,,Clear,230,2013-01-09 17:15:00
11:35 AM,39.2,30.7,72,30.35,10.0,WSW,19.6,32.2,N/A,,Clear,250,2013-01-09 17:35:00
11:55 AM,39.9,30.6,69,30.34,10.0,West,17.3,23.0,N/A,,Clear,260,2013-01-09 17:55:00
12:15 PM,40.1,30.0,67,30.34,10.0,WSW,13.8,23.0,N/A,,Clear,250,2013-01-09 18:15:00
12:35 PM,39.9,29.7,67,30.35,10.0,West,16.1,24.2,N/A,,Clear,260,2013-01-09 18:35:00
12:55 PM,39.9,30.2,68,30.34,10.0,West,10.4,20.7,N/A,,Clear,270,2013-01-09 18:55:00
1:15 PM,40.1,30.0,67,30.36,10.0,West,11.5,17.3,N/A,,Clear,280,2013-01-09 19:15:00
1:35 PM,40.1,30.0,67,30.37,10.0,West,11.5,18.4,N/A,,Clear,280,2013-01-09 19:35:00
1:55 PM,40.1,29.3,65,30.37,10.0,West,8.1,-,N/A,,Clear,270,2013-01-09 19:55:00
2:15 PM,40.5,28.4,62,30.38,10.0,West,6.9,18.4,N/A,,Clear,270,2013-01-09 20:15:00
2:35 PM,40.8,28.4,61,30.39,10.0,WNW,6.9,-,N/A,,Clear,290,2013-01-09 20:35:00
2:55 PM,40.5,27.9,61,30.39,10.0,West,6.9,-,N/A,,Clear,280,2013-01-09 20:55:00
3:15 PM,40.3,26.1,57,30.39,10.0,WNW,9.2,17.3,N/A,,Clear,290,2013-01-09 21:15:00
3:35 PM,39.6,27.3,62,30.39,10.0,WNW,6.9,-,N/A,,Clear,300,2013-01-09 21:35:00
3:55 PM,39.0,27.1,62,30.40,10.0,WNW,6.9,-,N/A,,Clear,300,2013-01-09 21:55:00
4:15 PM,39.2,26.6,61,30.41,10.0,WNW,6.9,-,N/A,,Clear,290,2013-01-09 22:15:00
4:35 PM,38.5,26.4,62,30.41,10.0,West,6.9,-,N/A,,Clear,280,2013-01-09 22:35:00
4:55 PM,37.8,26.6,64,30.41,10.0,WNW,4.6,-,N/A,,Clear,290,2013-01-09 22:55:00
5:15 PM,37.0,27.1,67,30.43,10.0,WSW,4.6,-,N/A,,Clear,250,2013-01-09 23:15:00
5:35 PM,36.5,27.1,69,30.44,10.0,Calm,Calm,-,N/A,,Clear,0,2013-01-09 23:35:00
5:55 PM,33.1,26.8,78,30.43,10.0,Calm,Calm,-,N/A,,Clear,0,2013-01-09 23:55:00
6:15 PM,32.0,26.1,79,30.42,10.0,NNW,3.5,-,N/A,,Clear,340,2013-01-10 00:15:00
6:35 PM,33.8,26.6,75,30.43,10.0,NW,3.5,-,N/A,,Clear,320,2013-01-10 00:35:00
6:55 PM,31.8,26.4,80,30.43,10.0,Calm,Calm,-,N/A,,Clear,0,2013-01-10 00:55:00
7:15 PM,31.6,26.8,82,30.43,10.0,Calm,Calm,-,N/A,,Clear,0,2013-01-10 01:15:00
7:35 PM,32.0,26.8,81,30.44,10.0,Calm,Calm,-,N/A,,Clear,0,2013-01-10 01:35:00
7:55 PM,31.3,26.4,82,30.44,10.0,SSW,3.5,-,N/A,,Clear,200,2013-01-10 01:55:00
8:15 PM,27.3,24.6,90,30.45,10.0,SSE,5.8,-,N/A,,Clear,160,2013-01-10 02:15:00
8:35 PM,27.7,25.5,92,30.46,10.0,South,6.9,-,N/A,,Clear,180,2013-01-10 02:35:00
8:55 PM,28.8,26.1,90,30.46,10.0,SSE,4.6,-,N/A,,Clear,160,2013-01-10 02:55:00
9:15 PM,29.3,26.1,88,30.46,10.0,Calm,Calm,-,N/A,,Clear,0,2013-01-10 03:15:00
9:35 PM,27.5,25.5,92,30.45,10.0,Calm,Calm,-,N/A,,Clear,0,2013-01-10 03:35:00
9:55 PM,27.3,25.7,94,30.46,10.0,SSE,3.5,-,N/A,,Clear,160,2013-01-10 03:55:00
10:15 PM,26.4,25.0,94,30.47,10.0,SSE,4.6,-,N/A,,Clear,160,2013-01-10 04:15:00
10:35 PM,27.9,26.4,94,30.47,10.0,Calm,Calm,-,N/A,,Clear,0,2013-01-10 04:35:00
10:55 PM,27.3,25.9,94,30.47,10.0,SSE,3.5,-,N/A,,Clear,150,2013-01-10 04:55:00
11:15 PM,26.6,25.2,94,30.48,10.0,SSE,3.5,-,N/A,,Clear,150,2013-01-10 05:15:00
11:35 PM,27.5,26.1,94,30.48,10.0,SE,3.5,-,N/A,,Clear,140,2013-01-10 05:35:00
11:55 PM,27.9,26.6,95,30.48,10.0,SSE,3.5,-,N/A,,Clear,160,2013-01-10 05:55:00